Усть-Каменогорск

СКИДКИ НА СМАРТФОНЫ!

Карта отелей и гостиниц, располагающихся рядом с аэропортом Усть-Каменогорск :

Усть-Каменогорск Восточно Казахстанская область 50° 2' 11.6988" N, 82° 29' 37.2588" E
Код аэродрома ИКАО
UASK
Код аэродрома RU
УАСК
Координаты
N50.03658° E082.49368°
Превышение над уровнем моря
286
Основная полоса
12R/30L
Курс магнитный
124/304
Длина основной ВПП
2515
Ширина основной ВПП
42
Покрытие основной ВПП
Твёрдое (асфальтобетон)
Освещение ВПП
Постоянное
Тип: 
Аэродром
Принадлежность: 
ГА
Статус: 
Действующий
Страна: 
Казахстан
Регион: 
Восточно Казахстанская область
Дополнительная информация: 
Эксплуатант: АО «Аэропорт Усть-Каменогорск». Имеет ЭССО ОВИ I-й категории ИКАО.
Погода: 

Авиационная погода в Усть-Каменогорске

Регион: 
Погода METAR: 
UASK 250300Z VRB01MPS 9999 NSC 12/01 Q1015 NOSIG RMK QFE736/0981
Время наблюдения
2022-09-25T03:00:00Z
Температура C
12.0
Точка росы
1.0
Направление ветра
0
Скорость ветра (узлы)
2
Метео видимость
6.21
Облачность
CLR
Нижняя граница облачности (футы)
Явления погоды
Условия полета
VFR
Аэропорт подробнее: 
CLR — нет облаков ниже 3000 м

Скидки на навигаторы!

Найти трансфер

С помощью этой формы Вы можете найти трансфер из аэропорта Усть-Каменогорск в город, аэропорт или вокзал:

Погода в аэропортах:

Авиационная погода в аэропорту Бесовец

Регион: 
Погода METAR: 
ULPB 250400Z AUTO 04003MPS 010V070 9999 -DZ 06/05 Q1008 RMK QBB330 QFE752/1003
Время наблюдения
2022-09-25T04:00:00Z
Температура C
6.0
Точка росы
5.0
Направление ветра
40
Скорость ветра (узлы)
6
Метео видимость
6.21
Облачность
Нижняя граница облачности (футы)
Явления погоды
-DZ
Условия полета
Аэропорт подробнее: 
-DZ – слабая морось;

Авиационная погода в Кутаиси

Регион: 
Погода METAR: 
UGKO 250400Z 09005KT 9999 -SHRA SCT027CB BKN041 12/12 Q1022 NOSIG
Время наблюдения
2022-09-25T04:00:00Z
Температура C
12.0
Точка росы
12.0
Направление ветра
90
Скорость ветра (узлы)
5
Метео видимость
6.21
Облачность
SCT
BKN
Нижняя граница облачности (футы)
2700
4100
Явления погоды
-SHRA
Условия полета
VFR
SCT – разбросанная отдельная облачность; BKN – значительная (рассеянная, разорванная) облачность;
-SHRA - слабый ливневой дождь;

Авиационная погода в Атырау

Регион: 
Погода METAR: 
UATG 250400Z 28006MPS 5000 BR SCT033CB 12/10 Q1013 NOSIG RMK QFE761/1015
Время наблюдения
2022-09-25T04:00:00Z
Температура C
12.0
Точка росы
10.0
Направление ветра
280
Скорость ветра (узлы)
12
Метео видимость
3.11
Облачность
SCT
Нижняя граница облачности (футы)
3300
Явления погоды
BR
Условия полета
MVFR
SCT – разбросанная отдельная облачность;
BR – дымка (видимость от 1 до 9 км);

Авиационная погода в Магнитогорске

Погода METAR: 
USCM 250400Z 20001MPS 3400 -SHRA BR OVC012CB 11/10 Q1010 R18/290155 TEMPO 21012MPS 1000 TSRA VV005 RMK QFE720
Время наблюдения
2022-09-25T04:00:00Z
Температура C
11.0
Точка росы
10.0
Направление ветра
200
Скорость ветра (узлы)
2
Метео видимость
2.11
Облачность
OVC
Нижняя граница облачности (футы)
1200
Явления погоды
-SHRA BR
Условия полета
IFR
Аэропорт подробнее: 
OVC – сплошная облачность;
-SHRA - слабый ливневой дождь; BR – дымка (видимость от 1 до 9 км);